Etusivu
METAR-TAF:

METAR-TAF

Lentoasemat :

Nipawin, Saskatchewan, Kanada

Leveyspiiri: 53-20N, Pituuspiiri: 104-00W, korkeus merenpinnasta: 372 m

Tämänhetkinen sää

Tämä raportti tehtiin 54 minuuttia sitten, kello 06.00 UTC
Tuuli 9 kn pohjoisesta/koillisesta
Lämpötila -8°C
Kosteus 92%
Ilmanpaine 1017 hPa
Näkyvyys: 1.6 km
heikkoa lumisadetta

METAR: CYBU 050600Z AUTO 02009KT 1SM -SN VV017 M08/M09 A3004 RMK SLP203

Aika: 00:54 (06:54 UTC)


TAF: puuttuu

Säähavainnot ja -ennusteet yli 4000 lentoasemalta (METAR- ja TAF-raportit).

Käytössä olevat sääasemat on merkitty karttaan keltaisilla ja punaisilla pisteillä.

Aseta hiiri pisteen päälle nähdäksesi sääaseman nimen.

Klikkaa sitten nähdäksesi säähavainnot ja -ennusteet.

Kartan vaihtaminen: klikkaa mustalla rastilla varustettuja vihreitä pisteitä, niin voit zoomata sisään; viivalla varustettua vihreää pistettä, niin voit zoomata ulos tai vihreitä nuolia, niin pääset viereisille kartoille.


METAR-TAF: